createdAt,value
2022-11-12T00:00:54.905Z,8.80
2022-11-12T00:03:22.096Z,8.80
2022-11-12T00:05:50.774Z,8.80
2022-11-12T00:08:18.223Z,8.80
2022-11-12T00:10:45.888Z,8.70
2022-11-12T00:13:13.377Z,8.70
2022-11-12T00:15:40.820Z,8.70
2022-11-12T00:18:08.093Z,8.70
2022-11-12T00:20:35.716Z,8.70
2022-11-12T00:23:03.203Z,8.70
2022-11-12T00:25:30.848Z,8.70
2022-11-12T00:28:06.143Z,8.70
2022-11-12T00:30:33.079Z,8.70
2022-11-12T00:33:04.120Z,8.70
2022-11-12T00:35:34.845Z,8.70
2022-11-12T00:38:01.700Z,8.70
2022-11-12T00:40:28.583Z,8.70
2022-11-12T00:42:55.517Z,8.70
2022-11-12T00:45:22.666Z,8.70
2022-11-12T00:47:49.590Z,8.70
2022-11-12T00:50:16.860Z,8.70
2022-11-12T00:52:44.160Z,8.70
2022-11-12T00:55:11.121Z,8.60
2022-11-12T00:57:38.027Z,8.70
2022-11-12T01:00:06.897Z,8.70
2022-11-12T01:02:40.701Z,8.70
2022-11-12T01:05:10.603Z,8.60
2022-11-12T01:07:37.568Z,8.60
2022-11-12T01:10:04.930Z,8.60
2022-11-12T01:12:32.747Z,8.60
2022-11-12T01:14:59.807Z,8.60
2022-11-12T01:17:26.728Z,8.60
2022-11-12T01:19:53.627Z,8.60
2022-11-12T01:22:20.485Z,8.60
2022-11-12T01:24:47.334Z,8.60
2022-11-12T01:27:15.074Z,8.70
2022-11-12T01:29:41.970Z,8.60
2022-11-12T01:32:08.824Z,8.70
2022-11-12T01:34:35.695Z,8.60
2022-11-12T01:37:02.558Z,8.60
2022-11-12T01:39:29.408Z,8.70
2022-11-12T01:41:56.423Z,8.70
2022-11-12T01:44:27.048Z,8.70
2022-11-12T01:47:12.553Z,8.70
2022-11-12T01:49:39.395Z,8.70
2022-11-12T01:52:19.373Z,8.60
2022-11-12T01:54:50.317Z,8.70
2022-11-12T01:57:24.009Z,8.60
2022-11-12T01:59:53.403Z,8.70
2022-11-12T02:02:20.294Z,8.70
2022-11-12T02:04:48.325Z,8.70
2022-11-12T02:07:16.499Z,8.70
2022-11-12T02:09:43.357Z,8.70
2022-11-12T02:12:30.233Z,8.70
2022-11-12T02:14:57.059Z,8.70
2022-11-12T02:17:24.100Z,8.70
2022-11-12T02:19:53.157Z,8.70
2022-11-12T02:22:20.112Z,8.70
2022-11-12T02:24:46.942Z,8.70
2022-11-12T02:27:13.880Z,8.70
2022-11-12T02:29:46.440Z,8.70
2022-11-12T02:32:14.389Z,8.70
2022-11-12T02:34:41.711Z,8.70
2022-11-12T02:37:08.675Z,8.70
2022-11-12T02:39:35.557Z,8.70
2022-11-12T02:42:02.477Z,8.70
2022-11-12T02:44:30.881Z,8.70
2022-11-12T02:46:57.761Z,8.70
2022-11-12T02:49:24.626Z,8.70
2022-11-12T02:51:51.568Z,8.70
2022-11-12T02:54:18.440Z,8.70
2022-11-12T02:56:45.345Z,8.70
2022-11-12T02:59:12.173Z,8.70
2022-11-12T03:01:39.205Z,8.70
2022-11-12T03:04:06.104Z,8.70
2022-11-12T03:06:32.970Z,8.70
2022-11-12T03:08:59.878Z,8.70
2022-11-12T03:11:27.375Z,8.70
2022-11-12T03:13:54.203Z,8.70
2022-11-12T03:16:21.058Z,8.70
2022-11-12T03:18:47.882Z,8.70
2022-11-12T03:21:14.729Z,8.70
2022-11-12T03:23:41.663Z,8.70
2022-11-12T03:26:08.505Z,8.70
2022-11-12T03:28:35.962Z,8.70
2022-11-12T03:31:02.958Z,8.70
2022-11-12T03:33:29.839Z,8.70
2022-11-12T03:35:56.721Z,8.70
2022-11-12T03:38:24.326Z,8.70
2022-11-12T03:40:51.379Z,8.70
2022-11-12T03:43:18.314Z,8.70
2022-11-12T03:45:45.285Z,8.80
2022-11-12T03:48:12.138Z,8.80
2022-11-12T03:50:38.966Z,8.70
2022-11-12T03:53:06.178Z,8.70
2022-11-12T03:55:32.996Z,8.70
2022-11-12T03:57:59.945Z,8.70
2022-11-12T04:00:28.592Z,8.70
2022-11-12T04:02:56.154Z,8.70
2022-11-12T04:05:41.954Z,8.70
2022-11-12T04:08:36.045Z,8.70
2022-11-12T04:11:04.003Z,8.80
2022-11-12T04:13:31.041Z,8.70
2022-11-12T04:16:22.564Z,8.70
2022-11-12T04:19:10.900Z,8.70
2022-11-12T04:21:56.535Z,8.70
2022-11-12T04:24:50.219Z,8.70
2022-11-12T04:27:21.392Z,8.80
2022-11-12T04:30:07.635Z,8.80
2022-11-12T04:32:36.758Z,8.70
2022-11-12T04:35:04.852Z,8.70
2022-11-12T04:37:44.681Z,8.70
2022-11-12T04:40:36.078Z,8.70
2022-11-12T04:43:23.485Z,8.70
2022-11-12T04:45:52.821Z,8.70
2022-11-12T04:48:20.597Z,8.70
2022-11-12T04:51:29.044Z,8.70
2022-11-12T04:53:56.006Z,8.70
2022-11-12T04:56:22.839Z,8.70
2022-11-12T04:58:49.800Z,8.70
2022-11-12T05:01:16.634Z,8.70
2022-11-12T05:03:43.496Z,8.60
2022-11-12T05:06:30.570Z,8.70
2022-11-12T05:08:57.489Z,8.70
2022-11-12T05:11:24.296Z,8.60
2022-11-12T05:13:51.203Z,8.60
2022-11-12T05:16:18.055Z,8.60
2022-11-12T05:18:44.907Z,8.60
2022-11-12T05:21:30.470Z,8.60
2022-11-12T05:23:57.356Z,8.60
2022-11-12T05:26:24.244Z,8.60
2022-11-12T05:28:51.212Z,8.60
2022-11-12T05:31:18.028Z,8.60
2022-11-12T05:33:44.859Z,8.60
2022-11-12T05:36:12.134Z,8.60
2022-11-12T05:38:39.245Z,8.60
2022-11-12T05:41:06.249Z,8.60
2022-11-12T05:43:33.102Z,8.70
2022-11-12T05:45:59.922Z,8.60
2022-11-12T05:48:27.148Z,8.60
2022-11-12T05:53:42.661Z,8.60
2022-11-12T05:56:10.458Z,8.70
2022-11-12T05:58:37.476Z,8.70
2022-11-12T06:01:04.665Z,8.70
2022-11-12T06:03:31.870Z,8.70
2022-11-12T06:05:59.271Z,8.70
2022-11-12T06:08:26.487Z,8.70
2022-11-12T06:10:55.170Z,8.70
2022-11-12T06:13:24.500Z,8.70
2022-11-12T06:15:52.830Z,8.70
2022-11-12T06:18:20.290Z,8.70
2022-11-12T06:21:08.093Z,8.70
2022-11-12T06:23:35.482Z,8.70
2022-11-12T06:26:03.290Z,8.70
2022-11-12T06:28:30.461Z,8.70
2022-11-12T06:30:57.393Z,8.70
2022-11-12T06:33:24.239Z,8.70
2022-11-12T06:35:58.261Z,8.70
2022-11-12T06:38:25.429Z,8.80
2022-11-12T06:40:52.541Z,8.70
2022-11-12T06:43:19.434Z,8.70
2022-11-12T06:45:46.421Z,8.80
2022-11-12T06:48:13.292Z,8.80
2022-11-12T06:50:40.154Z,8.80
2022-11-12T06:53:06.991Z,8.90
2022-11-12T06:55:33.850Z,8.90
2022-11-12T06:58:01.063Z,8.90
2022-11-12T07:00:27.952Z,8.90
2022-11-12T07:02:54.781Z,8.90
2022-11-12T07:05:21.976Z,8.90
2022-11-12T07:07:49.029Z,8.90
2022-11-12T07:10:16.188Z,9.00
2022-11-12T07:12:43.055Z,9.00
2022-11-12T07:15:10.379Z,9.00
2022-11-12T07:17:37.225Z,9.10
2022-11-12T07:20:04.506Z,9.10
2022-11-12T07:22:34.561Z,9.10
2022-11-12T07:25:01.578Z,9.10
2022-11-12T07:27:32.026Z,9.10
2022-11-12T07:29:58.872Z,9.10
2022-11-12T07:32:25.764Z,9.10
2022-11-12T07:34:52.853Z,9.10
2022-11-12T07:37:19.685Z,9.20
2022-11-12T07:39:46.518Z,9.20
2022-11-12T07:42:13.376Z,9.20
2022-11-12T07:44:40.210Z,9.20
2022-11-12T07:47:07.070Z,9.20
2022-11-12T07:49:33.924Z,9.20
2022-11-12T07:52:00.772Z,9.30
2022-11-12T07:54:27.645Z,9.30
2022-11-12T07:56:54.492Z,9.30
2022-11-12T07:59:21.327Z,9.30
2022-11-12T08:01:48.193Z,9.30
2022-11-12T08:04:15.599Z,9.30
2022-11-12T08:06:42.735Z,9.30
2022-11-12T08:09:10.798Z,9.30
2022-11-12T08:11:37.727Z,9.30
2022-11-12T08:14:04.689Z,9.40
2022-11-12T08:16:31.697Z,9.40
2022-11-12T08:18:58.760Z,9.40
2022-11-12T08:21:25.667Z,9.40
2022-11-12T08:23:52.897Z,9.40
2022-11-12T08:26:21.256Z,11.10
2022-11-12T08:28:48.606Z,9.40
2022-11-12T08:31:19.469Z,9.50
2022-11-12T08:33:46.782Z,9.50
2022-11-12T08:36:15.419Z,9.50
2022-11-12T08:38:42.585Z,9.50
2022-11-12T08:41:12.549Z,9.60
2022-11-12T08:43:41.214Z,9.60
2022-11-12T08:46:08.218Z,9.60
2022-11-12T08:48:35.560Z,9.60
2022-11-12T08:51:04.770Z,9.70
2022-11-12T08:53:32.283Z,9.60
2022-11-12T08:55:59.909Z,9.70
2022-11-12T08:58:27.341Z,9.70
2022-11-12T09:00:56.015Z,9.70
2022-11-12T09:03:25.366Z,9.70
2022-11-12T09:05:53.010Z,9.70
2022-11-12T09:08:25.366Z,9.70
2022-11-12T09:10:53.036Z,9.70
2022-11-12T09:13:20.310Z,9.80
2022-11-12T09:15:47.784Z,9.80
2022-11-12T09:18:18.798Z,9.70
2022-11-12T09:20:46.127Z,9.80
2022-11-12T09:23:17.703Z,9.80
2022-11-12T09:25:45.035Z,9.80
2022-11-12T09:28:16.934Z,9.70
2022-11-12T09:30:49.347Z,9.70
2022-11-12T09:33:18.403Z,9.70
2022-11-12T09:35:46.387Z,9.70
2022-11-12T09:38:14.968Z,9.70
2022-11-12T09:41:00.570Z,9.70
2022-11-12T09:43:35.437Z,9.70
2022-11-12T09:46:28.312Z,9.70
2022-11-12T09:49:21.193Z,9.70
2022-11-12T09:51:59.720Z,9.70
2022-11-12T09:54:30.605Z,9.70
2022-11-12T09:56:57.612Z,9.70
2022-11-12T09:59:29.688Z,9.70
2022-11-12T10:01:59.402Z,9.80
2022-11-12T10:04:45.542Z,9.80
2022-11-12T10:07:33.901Z,9.80
2022-11-12T10:10:24.250Z,10.00
2022-11-12T10:13:41.043Z,10.00
2022-11-12T10:16:34.258Z,10.00
2022-11-12T10:19:31.745Z,10.00
2022-11-12T10:22:04.683Z,9.90
2022-11-12T10:24:37.679Z,10.00
2022-11-12T10:27:20.721Z,10.00
2022-11-12T10:30:00.849Z,10.00
2022-11-12T10:32:27.910Z,9.90
2022-11-12T10:34:54.726Z,9.90
2022-11-12T10:37:42.667Z,9.90
2022-11-12T10:40:21.514Z,9.90
2022-11-12T10:43:27.046Z,9.90
2022-11-12T10:46:17.602Z,9.90
2022-11-12T10:48:58.152Z,9.90
2022-11-12T10:51:28.611Z,9.90
2022-11-12T10:53:55.668Z,9.90
2022-11-12T10:56:30.853Z,9.90
2022-11-12T10:59:16.838Z,9.70
2022-11-12T11:01:46.102Z,9.90
2022-11-12T11:04:29.970Z,10.00
2022-11-12T11:07:15.137Z,9.90
2022-11-12T11:09:53.527Z,9.90
2022-11-12T11:12:30.436Z,9.80
2022-11-12T11:15:09.362Z,9.80
2022-11-12T11:17:36.294Z,9.80
2022-11-12T11:20:16.064Z,9.80
2022-11-12T11:22:46.216Z,9.80
2022-11-12T11:25:27.739Z,9.70
2022-11-12T11:28:30.961Z,9.70
2022-11-12T11:31:12.888Z,9.70
2022-11-12T11:33:54.952Z,9.80
2022-11-12T11:36:29.520Z,9.80
2022-11-12T11:39:02.502Z,9.70
2022-11-12T11:41:41.457Z,9.70
2022-11-12T11:44:22.294Z,9.80
2022-11-12T11:47:50.484Z,9.70
2022-11-12T11:50:34.476Z,9.70
2022-11-12T11:53:38.323Z,9.70
2022-11-12T11:56:42.764Z,9.60
2022-11-12T11:59:24.526Z,9.60
2022-11-12T12:02:37.221Z,9.50
2022-11-12T12:05:38.613Z,9.40
2022-11-12T12:08:33.744Z,11.10
2022-11-12T12:11:20.627Z,9.50
2022-11-12T12:14:22.432Z,9.40
2022-11-12T12:17:06.479Z,9.50
2022-11-12T12:19:54.501Z,9.50
2022-11-12T12:22:46.817Z,9.40
2022-11-12T12:25:27.028Z,9.40
2022-11-12T12:28:08.970Z,9.30
2022-11-12T12:30:40.500Z,9.20
2022-11-12T12:33:30.406Z,9.30
2022-11-12T12:36:08.549Z,9.30
2022-11-12T12:38:44.054Z,9.20
2022-11-12T12:41:16.745Z,9.20
2022-11-12T12:43:49.035Z,9.20
2022-11-12T12:46:21.312Z,9.20
2022-11-12T12:48:51.741Z,9.20
2022-11-12T12:51:19.273Z,9.20
2022-11-12T12:53:46.304Z,9.10
2022-11-12T12:56:13.191Z,9.20
2022-11-12T12:58:48.406Z,9.10
2022-11-12T13:01:21.452Z,9.10
2022-11-12T13:03:53.442Z,9.00
2022-11-12T13:06:27.460Z,8.90
2022-11-12T13:09:08.206Z,8.90
2022-11-12T13:11:59.452Z,8.90
2022-11-12T13:14:35.867Z,8.90
2022-11-12T13:17:09.107Z,8.80
2022-11-12T13:19:35.933Z,8.80
2022-11-12T13:22:17.725Z,8.80
2022-11-12T13:25:12.192Z,8.70
2022-11-12T13:27:44.757Z,8.70
2022-11-12T13:30:14.457Z,8.60
2022-11-12T13:32:49.016Z,8.60
2022-11-12T13:35:29.341Z,8.60
2022-11-12T13:38:03.554Z,8.60
2022-11-12T13:40:30.375Z,8.50
2022-11-12T13:43:19.662Z,8.50
2022-11-12T13:45:58.714Z,8.40
2022-11-12T13:48:33.877Z,8.40
2022-11-12T13:51:12.492Z,8.50
2022-11-12T13:53:39.343Z,8.50
2022-11-12T13:56:06.497Z,8.40
2022-11-12T13:58:35.847Z,8.30
2022-11-12T14:01:05.613Z,8.30
2022-11-12T14:03:47.347Z,7.00
2022-11-12T14:06:32.201Z,8.30
2022-11-12T14:09:31.418Z,8.00
2022-11-12T14:12:15.124Z,7.90
2022-11-12T14:15:10.210Z,7.90
2022-11-12T14:17:55.484Z,7.90
2022-11-12T14:20:36.445Z,7.90
2022-11-12T14:23:14.026Z,7.80
2022-11-12T14:26:07.313Z,7.80
2022-11-12T14:28:35.996Z,7.80
2022-11-12T14:31:04.478Z,8.00
2022-11-12T14:33:32.617Z,7.90
2022-11-12T14:36:14.791Z,7.80
2022-11-12T14:38:46.610Z,7.80
2022-11-12T14:41:25.774Z,7.60
2022-11-12T14:44:11.951Z,7.60
2022-11-12T14:46:49.807Z,7.60
2022-11-12T14:49:34.566Z,7.50
2022-11-12T14:52:36.974Z,7.50
2022-11-12T14:55:12.849Z,7.50
2022-11-12T14:57:40.766Z,7.60
2022-11-12T15:00:24.346Z,7.60
2022-11-12T15:02:59.182Z,7.50
2022-11-12T15:05:30.322Z,7.40
2022-11-12T15:07:58.945Z,7.50
2022-11-12T15:10:30.345Z,7.40
2022-11-12T15:13:30.835Z,7.30
2022-11-12T15:16:04.730Z,7.30
2022-11-12T15:18:33.875Z,7.20
2022-11-12T15:21:26.086Z,7.20
2022-11-12T15:24:15.718Z,7.30
2022-11-12T15:26:45.496Z,7.30
2022-11-12T15:29:15.425Z,7.20
2022-11-12T15:31:49.665Z,7.30
2022-11-12T15:34:27.016Z,7.30
2022-11-12T15:36:55.936Z,7.20
2022-11-12T15:39:24.787Z,7.30
2022-11-12T15:42:19.323Z,7.20
2022-11-12T15:44:46.947Z,7.10
2022-11-12T15:47:22.574Z,7.10
2022-11-12T15:49:53.390Z,7.30
2022-11-12T15:52:20.365Z,7.20
2022-11-12T15:54:47.366Z,7.10
2022-11-12T15:57:20.349Z,7.20
2022-11-12T16:00:06.287Z,7.20
2022-11-12T16:02:34.768Z,7.30
2022-11-12T16:05:01.674Z,7.30
2022-11-12T16:07:28.484Z,7.30
2022-11-12T16:09:55.374Z,7.30
2022-11-12T16:12:22.264Z,7.30
2022-11-12T16:14:49.173Z,7.30
2022-11-12T16:17:17.539Z,7.10
2022-11-12T16:19:44.479Z,7.00
2022-11-12T16:22:14.051Z,6.90
2022-11-12T16:24:42.249Z,6.90
2022-11-12T16:27:14.361Z,6.90
2022-11-12T16:29:41.723Z,6.80
2022-11-12T16:32:14.000Z,6.80
2022-11-12T16:34:40.891Z,6.90
2022-11-12T16:37:12.482Z,7.00
2022-11-12T16:39:39.806Z,7.10
2022-11-12T16:42:08.367Z,7.20
2022-11-12T16:44:35.183Z,7.20
2022-11-12T16:47:06.176Z,7.20
2022-11-12T16:49:38.242Z,7.10
2022-11-12T16:52:05.641Z,7.10
2022-11-12T16:54:32.458Z,7.10
2022-11-12T16:56:59.459Z,7.00
2022-11-12T16:59:26.341Z,7.00
2022-11-12T17:01:53.172Z,7.00
2022-11-12T17:04:20.517Z,7.00
2022-11-12T17:06:47.386Z,7.00
2022-11-12T17:09:16.876Z,7.00
2022-11-12T17:11:45.087Z,7.10
2022-11-12T17:14:12.133Z,6.90
2022-11-12T17:16:38.972Z,7.10
2022-11-12T17:19:05.889Z,7.20
2022-11-12T17:21:32.807Z,7.20
2022-11-12T17:23:59.700Z,7.10
2022-11-12T17:26:26.737Z,7.20
2022-11-12T17:28:59.366Z,7.30
2022-11-12T17:31:28.162Z,7.30
2022-11-12T17:33:55.027Z,7.30
2022-11-12T17:36:24.256Z,7.20
2022-11-12T17:38:58.783Z,7.10
2022-11-12T17:41:28.409Z,7.10
2022-11-12T17:43:56.658Z,7.10
2022-11-12T17:46:24.070Z,7.00
2022-11-12T17:48:51.066Z,7.10
2022-11-12T17:51:20.790Z,7.30
2022-11-12T17:53:48.292Z,7.30
2022-11-12T17:56:17.811Z,7.30
2022-11-12T17:58:47.982Z,7.30
2022-11-12T18:01:21.670Z,7.20
2022-11-12T18:03:50.814Z,7.20
2022-11-12T18:06:24.602Z,7.10
2022-11-12T18:09:00.261Z,7.10
2022-11-12T18:11:30.238Z,7.00
2022-11-12T18:13:57.109Z,6.90
2022-11-12T18:16:26.740Z,6.50
2022-11-12T18:18:57.846Z,7.00
2022-11-12T18:21:26.322Z,7.10
2022-11-12T18:23:53.827Z,7.10
2022-11-12T18:26:21.073Z,7.10
2022-11-12T18:28:52.248Z,7.20
2022-11-12T18:31:20.072Z,7.30
2022-11-12T18:33:47.775Z,7.30
2022-11-12T18:36:19.632Z,7.20
2022-11-12T18:38:48.465Z,7.10
2022-11-12T18:41:16.691Z,7.10
2022-11-12T18:43:43.680Z,7.10
2022-11-12T18:46:11.031Z,7.20
2022-11-12T18:48:40.317Z,7.30
2022-11-12T18:51:13.556Z,7.30
2022-11-12T18:53:41.366Z,7.30
2022-11-12T18:56:13.862Z,7.30
2022-11-12T18:58:41.060Z,7.40
2022-11-12T19:01:16.171Z,7.30
2022-11-12T19:03:43.670Z,7.50
2022-11-12T19:06:12.656Z,7.30
2022-11-12T19:08:40.259Z,7.30
2022-11-12T19:11:09.728Z,7.10
2022-11-12T19:13:37.286Z,7.10
2022-11-12T19:16:14.264Z,7.10
2022-11-12T19:18:42.275Z,7.10
2022-11-12T19:21:20.973Z,7.00
2022-11-12T19:23:52.694Z,7.10
2022-11-12T19:26:21.552Z,7.40
2022-11-12T19:28:48.669Z,7.10
2022-11-12T19:31:18.611Z,7.20
2022-11-12T19:33:47.029Z,7.20
2022-11-12T19:36:17.098Z,7.20
2022-11-12T19:38:44.163Z,7.40
2022-11-12T19:41:18.970Z,7.30
2022-11-12T19:43:47.090Z,7.20
2022-11-12T19:46:14.647Z,7.20
2022-11-12T19:48:42.062Z,7.20
2022-11-12T19:51:10.782Z,7.30
2022-11-12T19:53:44.650Z,7.30
2022-11-12T19:56:14.208Z,7.20
2022-11-12T19:58:45.509Z,7.10
2022-11-12T20:01:14.324Z,7.10
2022-11-12T20:03:41.463Z,7.20
2022-11-12T20:06:11.776Z,7.20
2022-11-12T20:08:39.022Z,7.20
2022-11-12T20:11:06.046Z,7.20
2022-11-12T20:13:33.090Z,7.20
2022-11-12T20:16:05.060Z,7.20
2022-11-12T20:18:31.895Z,7.20
2022-11-12T20:20:58.949Z,7.20
2022-11-12T20:23:26.355Z,7.20
2022-11-12T20:25:54.063Z,7.20
2022-11-12T20:28:20.922Z,7.20
2022-11-12T20:30:47.804Z,7.20
2022-11-12T20:33:14.811Z,7.30
2022-11-12T20:35:42.086Z,7.20
2022-11-12T20:38:08.955Z,7.10
2022-11-12T20:40:35.813Z,7.10
2022-11-12T20:43:02.760Z,7.10
2022-11-12T20:45:29.575Z,7.00
2022-11-12T20:47:56.758Z,7.20
2022-11-12T20:50:24.057Z,7.20
2022-11-12T20:52:51.005Z,7.30
2022-11-12T20:55:18.638Z,7.30
2022-11-12T20:57:46.340Z,7.30
2022-11-12T21:00:17.727Z,7.40
2022-11-12T21:02:47.060Z,7.30
2022-11-12T21:05:13.993Z,7.20
2022-11-12T21:07:40.829Z,7.20
2022-11-12T21:10:08.390Z,7.20
2022-11-12T21:12:36.021Z,7.40
2022-11-12T21:15:03.062Z,7.40
2022-11-12T21:17:29.909Z,7.40
2022-11-12T21:19:56.763Z,7.40
2022-11-12T21:22:23.599Z,7.40
2022-11-12T21:24:50.480Z,7.40
2022-11-12T21:27:17.321Z,7.40
2022-11-12T21:29:44.136Z,7.40
2022-11-12T21:32:11.135Z,7.30
2022-11-12T21:34:38.221Z,7.30
2022-11-12T21:37:05.037Z,7.30
2022-11-12T21:39:32.256Z,7.30
2022-11-12T21:41:59.149Z,7.30
2022-11-12T21:44:25.992Z,7.30
2022-11-12T21:46:52.899Z,7.30
2022-11-12T21:49:19.796Z,7.20
2022-11-12T21:51:46.774Z,7.20
2022-11-12T21:54:14.878Z,7.20
2022-11-12T21:56:42.112Z,7.10
2022-11-12T21:59:09.001Z,7.20
2022-11-12T22:01:36.039Z,7.30
2022-11-12T22:04:07.104Z,7.20
2022-11-12T22:06:37.856Z,7.40
2022-11-12T22:09:05.462Z,7.20
2022-11-12T22:11:32.936Z,7.10
2022-11-12T22:13:59.944Z,7.00
2022-11-12T22:16:29.592Z,7.00
2022-11-12T22:18:58.274Z,7.10
2022-11-12T22:21:27.881Z,7.20
2022-11-12T22:23:56.246Z,7.20
2022-11-12T22:26:26.669Z,7.30
2022-11-12T22:28:55.456Z,7.30
2022-11-12T22:31:28.659Z,7.30
2022-11-12T22:33:56.006Z,7.20
2022-11-12T22:36:25.728Z,7.50
2022-11-12T22:38:53.921Z,7.50
2022-11-12T22:41:26.267Z,7.30
2022-11-12T22:43:55.648Z,7.40
2022-11-12T22:46:25.229Z,7.40
2022-11-12T22:48:52.287Z,7.20
2022-11-12T22:51:21.841Z,7.00
2022-11-12T22:53:54.044Z,7.10
2022-11-12T22:56:21.006Z,7.00
2022-11-12T22:58:48.230Z,7.10
2022-11-12T23:01:35.128Z,7.20
2022-11-12T23:04:04.169Z,7.10
2022-11-12T23:06:31.639Z,7.10
2022-11-12T23:08:59.559Z,7.10
2022-11-12T23:11:27.068Z,7.20
2022-11-12T23:13:54.970Z,7.20
2022-11-12T23:16:27.737Z,7.10
2022-11-12T23:18:55.059Z,7.10
2022-11-12T23:21:24.766Z,7.00
2022-11-12T23:23:51.795Z,7.20
2022-11-12T23:26:24.499Z,7.00
2022-11-12T23:28:51.624Z,7.10
2022-11-12T23:31:21.833Z,7.00
2022-11-12T23:33:51.180Z,6.90
2022-11-12T23:36:18.898Z,6.80
2022-11-12T23:38:46.374Z,6.80
2022-11-12T23:41:16.322Z,6.90
2022-11-12T23:43:43.524Z,6.80
2022-11-12T23:46:11.085Z,6.90
2022-11-12T23:48:38.070Z,6.90
2022-11-12T23:51:13.426Z,6.90
2022-11-12T23:53:40.771Z,6.70
2022-11-12T23:56:10.553Z,6.70
2022-11-12T23:58:39.096Z,6.70
